KFLO/FLO METAR and TAF weather

Enter ICAO airport designator
Station Type Date Time Source
KFLO METAR 2020/07/15 08:53 UTC NOAA

KFLO 150853Z 00000KT 9SM OVC100 27/24 A3003 RMK AO2 SLP167 T02670244 55001


Station Type Date Time Source
KFLO Decoded METAR 2020/07/15 08:53 UTC NOAA

FLORENCE REGIONAL AIRPORT, SC, United States (KFLO) 34-11N 079-44W 44M
Jul 15, 2020 - 04:53 AM EDT / 2020.07.15 0853 UTC
Wind: Calm:0
Visibility: 9 mile(s):0
Sky conditions: overcast
Temperature: 80.1 F (26.7 C)
Dew Point: 75.9 F (24.4 C)
Relative Humidity: 87%
Pressure (altimeter): 30.03 in. Hg (1016 hPa)
Pressure tendency: 0.00 inches (0.1 hPa) lower than three hours ago
ob: KFLO 150853Z 00000KT 9SM OVC100 27/24 A3003 RMK AO2 SLP167 T02670244 55001
cycle: 9

Station Type Date Time Source
KFLO TAF 2020/07/15 06:22 UTC NOAA

TAF KFLO 150520Z 1506/1606 VRB04KT P6SM FEW050 SCT110
FM151500 11005KT P6SM FEW250
FM152000 15007KT P6SM SCT050
FM160000 VRB04KT P6SM FEW060 SCT250

Example: see airport list